BEL1KZ EBBR-LDZD
Flight info
| Callsign | BEL1KZ |
|---|---|
| Flight time | 1h 37m |
| Altitude | 39000 |
| Route | PITES DCT EDISA DCT UTABA DCT XEBIX DCT GEMKA DCT KUDUL |
| Aircraft | A319/M-DE3FGIJ1LORVWY/H |
Departure
| Time | 2026-04-30 12:00 |
|---|---|
| Airport | Brussels Airport (EBBR) |
Arrival
| Time | 2026-04-30 13:38 |
|---|---|
| Airport | Zadar Airport (LDZD) |
| Time | Latitude | Longitude | Altitude | Speed | Heading |
|---|---|---|---|---|---|
| 2026-04-30 11:21 | 50.90279 | 4.48148 | 121 ft | 0 kts | 155° |
| 2026-04-30 11:44 | 50.90294 | 4.48137 | 117 ft | 4 kts | 150° |
| 2026-04-30 11:44 | 50.90298 | 4.48133 | 117 ft | 4 kts | 146° |
| 2026-04-30 11:45 | 50.90313 | 4.48113 | 117 ft | 4 kts | 116° |
| 2026-04-30 11:46 | 50.90315 | 4.48088 | 117 ft | 1 kts | 65° |
| 2026-04-30 11:49 | 50.90316 | 4.48089 | 117 ft | 0 kts | 55° |
| 2026-04-30 11:50 | 50.90324 | 4.48096 | 117 ft | 3 kts | 30° |
| 2026-04-30 11:50 | 50.90351 | 4.48084 | 118 ft | 6 kts | 319° |
| 2026-04-30 11:50 | 50.90392 | 4.48033 | 120 ft | 9 kts | 343° |
| 2026-04-30 11:50 | 50.90442 | 4.48097 | 121 ft | 12 kts | 64° |
| 2026-04-30 11:51 | 50.90480 | 4.48229 | 120 ft | 14 kts | 65° |
| 2026-04-30 11:51 | 50.90522 | 4.48376 | 121 ft | 15 kts | 65° |
| 2026-04-30 11:51 | 50.90566 | 4.48526 | 121 ft | 15 kts | 65° |
| 2026-04-30 11:51 | 50.90612 | 4.48684 | 118 ft | 16 kts | 65° |
| 2026-04-30 11:52 | 50.90659 | 4.48846 | 119 ft | 16 kts | 65° |
| 2026-04-30 11:52 | 50.90705 | 4.49011 | 119 ft | 16 kts | 69° |
| 2026-04-30 11:52 | 50.90675 | 4.49163 | 121 ft | 14 kts | 87° |
| 2026-04-30 11:52 | 50.90713 | 4.49307 | 122 ft | 14 kts | 65° |
| 2026-04-30 11:53 | 50.90753 | 4.49445 | 123 ft | 14 kts | 65° |
| 2026-04-30 11:53 | 50.90754 | 4.49572 | 123 ft | 12 kts | 143° |
| 2026-04-30 11:53 | 50.90668 | 4.49562 | 121 ft | 13 kts | 195° |
| 2026-04-30 11:53 | 50.90573 | 4.49524 | 122 ft | 15 kts | 194° |
| 2026-04-30 11:54 | 50.90468 | 4.49482 | 124 ft | 16 kts | 194° |
| 2026-04-30 11:54 | 50.90354 | 4.49438 | 123 ft | 17 kts | 193° |
| 2026-04-30 11:54 | 50.90241 | 4.49388 | 127 ft | 16 kts | 196° |
| 2026-04-30 11:54 | 50.90138 | 4.49348 | 128 ft | 14 kts | 194° |
| 2026-04-30 11:55 | 50.90039 | 4.49307 | 131 ft | 15 kts | 194° |
| 2026-04-30 11:55 | 50.89939 | 4.49266 | 135 ft | 14 kts | 195° |
| 2026-04-30 11:55 | 50.89857 | 4.49232 | 140 ft | 10 kts | 195° |
| 2026-04-30 11:55 | 50.89795 | 4.49206 | 144 ft | 9 kts | 194° |
| 2026-04-30 11:56 | 50.89729 | 4.49179 | 147 ft | 11 kts | 194° |
| 2026-04-30 11:56 | 50.89649 | 4.49141 | 152 ft | 12 kts | 205° |
| 2026-04-30 11:56 | 50.89562 | 4.49063 | 156 ft | 17 kts | 195° |
| 2026-04-30 11:56 | 50.89435 | 4.49015 | 160 ft | 20 kts | 193° |
| 2026-04-30 11:57 | 50.89335 | 4.48973 | 164 ft | 13 kts | 201° |
| 2026-04-30 11:57 | 50.89289 | 4.48867 | 165 ft | 14 kts | 250° |
| 2026-04-30 11:57 | 50.89250 | 4.48700 | 164 ft | 18 kts | 250° |
| 2026-04-30 11:57 | 50.89203 | 4.48499 | 164 ft | 20 kts | 250° |
| 2026-04-30 11:58 | 50.89155 | 4.48293 | 164 ft | 20 kts | 249° |
| 2026-04-30 11:58 | 50.89111 | 4.48100 | 164 ft | 20 kts | 250° |
| 2026-04-30 11:58 | 50.89050 | 4.47915 | 165 ft | 18 kts | 214° |
| 2026-04-30 11:58 | 50.88959 | 4.47938 | 175 ft | 10 kts | 140° |
| 2026-04-30 11:59 | 50.88939 | 4.48022 | 178 ft | 8 kts | 103° |
| 2026-04-30 11:59 | 50.88929 | 4.48134 | 179 ft | 12 kts | 86° |
| 2026-04-30 11:59 | 50.88936 | 4.48175 | 179 ft | 0 kts | 71° |
| 2026-04-30 11:59 | 50.88994 | 4.48426 | 179 ft | 62 kts | 70° |
| 2026-04-30 12:00 | 50.89224 | 4.49414 | 176 ft | 127 kts | 70° |
| 2026-04-30 12:00 | 50.89561 | 4.50865 | 601 ft | 142 kts | 71° |
| 2026-04-30 12:00 | 50.89935 | 4.52305 | 1287 ft | 145 kts | 69° |
| 2026-04-30 12:00 | 50.90386 | 4.53714 | 1988 ft | 149 kts | 68° |
| 2026-04-30 12:01 | 50.90884 | 4.55283 | 2490 ft | 170 kts | 69° |
| 2026-04-30 12:01 | 50.91436 | 4.57067 | 2984 ft | 191 kts | 70° |
| 2026-04-30 12:01 | 50.92067 | 4.59102 | 3346 ft | 220 kts | 70° |
| 2026-04-30 12:01 | 50.92777 | 4.61400 | 3873 ft | 243 kts | 69° |
| 2026-04-30 12:02 | 50.93537 | 4.63841 | 4760 ft | 250 kts | 69° |
| 2026-04-30 12:02 | 50.94101 | 4.66462 | 5690 ft | 253 kts | 79° |
| 2026-04-30 12:02 | 50.94560 | 4.69176 | 6699 ft | 256 kts | 78° |
| 2026-04-30 12:02 | 50.95077 | 4.71902 | 7642 ft | 260 kts | 76° |
| 2026-04-30 12:03 | 50.95457 | 4.74710 | 8557 ft | 261 kts | 90° |
| 2026-04-30 12:03 | 50.94250 | 4.80057 | 10385 ft | 270 kts | 129° |
| 2026-04-30 12:03 | 50.92775 | 4.82049 | 10920 ft | 289 kts | 140° |
| 2026-04-30 12:04 | 50.91145 | 4.84083 | 11342 ft | 308 kts | 139° |
| 2026-04-30 12:04 | 50.89411 | 4.86211 | 11915 ft | 322 kts | 144° |
| 2026-04-30 12:04 | 50.87371 | 4.87763 | 12682 ft | 331 kts | 158° |
| 2026-04-30 12:04 | 50.85082 | 4.88499 | 13435 ft | 341 kts | 171° |
| 2026-04-30 12:05 | 50.82740 | 4.88832 | 14192 ft | 346 kts | 172° |
| 2026-04-30 12:05 | 50.80330 | 4.89187 | 14873 ft | 349 kts | 172° |
| 2026-04-30 12:05 | 50.77891 | 4.89560 | 15557 ft | 354 kts | 171° |
| 2026-04-30 12:05 | 50.75434 | 4.89949 | 16244 ft | 357 kts | 171° |
| 2026-04-30 12:06 | 50.72948 | 4.90346 | 16954 ft | 360 kts | 171° |
| 2026-04-30 12:06 | 50.70446 | 4.90747 | 17644 ft | 363 kts | 170° |
| 2026-04-30 12:06 | 50.67978 | 4.91589 | 18301 ft | 364 kts | 159° |
| 2026-04-30 12:06 | 50.65669 | 4.93197 | 18934 ft | 363 kts | 147° |
| 2026-04-30 12:07 | 50.63607 | 4.95505 | 19521 ft | 364 kts | 136° |
| 2026-04-30 12:07 | 50.61787 | 4.98290 | 20099 ft | 367 kts | 133° |
| 2026-04-30 12:07 | 50.59968 | 5.01126 | 20699 ft | 370 kts | 133° |
| 2026-04-30 12:07 | 50.58125 | 5.03988 | 21287 ft | 374 kts | 133° |
| 2026-04-30 12:08 | 50.56266 | 5.06867 | 21864 ft | 377 kts | 133° |
| 2026-04-30 12:08 | 50.54382 | 5.09777 | 22435 ft | 381 kts | 133° |
| 2026-04-30 12:08 | 50.52484 | 5.12703 | 23006 ft | 385 kts | 133° |
| 2026-04-30 12:08 | 50.50565 | 5.15662 | 23557 ft | 388 kts | 133° |
| 2026-04-30 12:09 | 50.48627 | 5.18646 | 24037 ft | 392 kts | 133° |
| 2026-04-30 12:09 | 50.46672 | 5.21652 | 24500 ft | 395 kts | 133° |
| 2026-04-30 12:09 | 50.44725 | 5.24638 | 24965 ft | 397 kts | 133° |
| 2026-04-30 12:09 | 50.42715 | 5.27709 | 25437 ft | 399 kts | 133° |
| 2026-04-30 12:10 | 50.40747 | 5.30714 | 25890 ft | 401 kts | 133° |
| 2026-04-30 12:10 | 50.38744 | 5.33777 | 26340 ft | 403 kts | 133° |
| 2026-04-30 12:10 | 50.37391 | 5.35849 | 26637 ft | 405 kts | 133° |
| 2026-04-30 12:10 | 50.35078 | 5.39385 | 27148 ft | 407 kts | 133° |
| 2026-04-30 12:11 | 50.33048 | 5.42486 | 27587 ft | 409 kts | 133° |
| 2026-04-30 12:11 | 50.31000 | 5.45607 | 28019 ft | 412 kts | 133° |
| 2026-04-30 12:11 | 50.28940 | 5.48737 | 28450 ft | 414 kts | 133° |
| 2026-04-30 12:11 | 50.26873 | 5.51876 | 28874 ft | 416 kts | 133° |
| 2026-04-30 12:12 | 50.24789 | 5.55036 | 29272 ft | 419 kts | 133° |
| 2026-04-30 12:12 | 50.22696 | 5.58213 | 29649 ft | 421 kts | 133° |
| 2026-04-30 12:12 | 50.20586 | 5.61414 | 30039 ft | 424 kts | 133° |
| 2026-04-30 12:12 | 50.18467 | 5.64625 | 30411 ft | 426 kts | 133° |
| 2026-04-30 12:13 | 50.16334 | 5.67846 | 30730 ft | 428 kts | 133° |
| 2026-04-30 12:13 | 50.14188 | 5.71075 | 31062 ft | 430 kts | 133° |
| 2026-04-30 12:13 | 50.12029 | 5.74314 | 31375 ft | 432 kts | 133° |
| 2026-04-30 12:13 | 50.09863 | 5.77562 | 31687 ft | 434 kts | 133° |
| 2026-04-30 12:14 | 50.07737 | 5.80755 | 32001 ft | 435 kts | 133° |
| 2026-04-30 12:14 | 50.05512 | 5.84088 | 32456 ft | 433 kts | 133° |
| 2026-04-30 12:14 | 50.03452 | 5.87476 | 32908 ft | 428 kts | 124° |
| 2026-04-30 12:14 | 50.01814 | 5.91313 | 33339 ft | 426 kts | 120° |
| 2026-04-30 12:15 | 50.00219 | 5.95180 | 33816 ft | 424 kts | 120° |
| 2026-04-30 12:15 | 49.98633 | 5.99035 | 34298 ft | 422 kts | 120° |
| 2026-04-30 12:15 | 49.97057 | 6.02872 | 34701 ft | 421 kts | 120° |
| 2026-04-30 12:15 | 49.95485 | 6.06695 | 35053 ft | 421 kts | 120° |
| 2026-04-30 12:16 | 49.93904 | 6.10533 | 35386 ft | 421 kts | 120° |
| 2026-04-30 12:16 | 49.92329 | 6.14357 | 35710 ft | 421 kts | 120° |
| 2026-04-30 12:16 | 49.90748 | 6.18188 | 36021 ft | 421 kts | 120° |
| 2026-04-30 12:16 | 49.89164 | 6.22015 | 36333 ft | 422 kts | 120° |
| 2026-04-30 12:17 | 49.85987 | 6.29661 | 36911 ft | 422 kts | 120° |
| 2026-04-30 12:17 | 49.84391 | 6.33485 | 37198 ft | 422 kts | 121° |
| 2026-04-30 12:17 | 49.82814 | 6.37252 | 37489 ft | 422 kts | 120° |
| 2026-04-30 12:18 | 49.81195 | 6.41116 | 37799 ft | 422 kts | 120° |
| 2026-04-30 12:18 | 49.79621 | 6.44878 | 38085 ft | 422 kts | 120° |
| 2026-04-30 12:18 | 49.78006 | 6.48738 | 38349 ft | 422 kts | 120° |
| 2026-04-30 12:18 | 49.76408 | 6.52556 | 38563 ft | 423 kts | 120° |
| 2026-04-30 12:19 | 49.74831 | 6.56322 | 38813 ft | 423 kts | 120° |
| 2026-04-30 12:19 | 49.73227 | 6.60138 | 39036 ft | 423 kts | 120° |
| 2026-04-30 12:19 | 49.71619 | 6.63956 | 39214 ft | 424 kts | 120° |
| 2026-04-30 12:19 | 49.70007 | 6.67776 | 39286 ft | 426 kts | 121° |
| 2026-04-30 12:20 | 49.66765 | 6.75434 | 39303 ft | 426 kts | 121° |
| 2026-04-30 12:20 | 49.63525 | 6.83067 | 39302 ft | 425 kts | 120° |
| 2026-04-30 12:21 | 49.60289 | 6.90682 | 39307 ft | 424 kts | 120° |
| 2026-04-30 12:21 | 49.57054 | 6.98278 | 39303 ft | 424 kts | 120° |
| 2026-04-30 12:22 | 49.53817 | 7.05855 | 39319 ft | 424 kts | 120° |
| 2026-04-30 12:22 | 49.50556 | 7.13443 | 39323 ft | 425 kts | 120° |
| 2026-04-30 12:23 | 49.47289 | 7.21031 | 39307 ft | 426 kts | 120° |
| 2026-04-30 12:23 | 49.44005 | 7.28645 | 39300 ft | 428 kts | 120° |
| 2026-04-30 12:24 | 49.40731 | 7.36209 | 39309 ft | 429 kts | 120° |
| 2026-04-30 12:24 | 49.37384 | 7.43917 | 39306 ft | 430 kts | 121° |
| 2026-04-30 12:25 | 49.34054 | 7.51554 | 39314 ft | 431 kts | 121° |
| 2026-04-30 12:25 | 49.30886 | 7.58806 | 39328 ft | 431 kts | 120° |
| 2026-04-30 12:26 | 49.27547 | 7.66450 | 39317 ft | 432 kts | 120° |
| 2026-04-30 12:26 | 49.24189 | 7.74117 | 39318 ft | 433 kts | 120° |
| 2026-04-30 12:27 | 49.20819 | 7.81766 | 39327 ft | 433 kts | 121° |
| 2026-04-30 12:27 | 49.17446 | 7.89416 | 39325 ft | 434 kts | 121° |
| 2026-04-30 12:28 | 49.14067 | 7.97050 | 39326 ft | 434 kts | 120° |
| 2026-04-30 12:28 | 49.10685 | 8.04684 | 39340 ft | 434 kts | 120° |
| 2026-04-30 12:29 | 49.07297 | 8.12303 | 39330 ft | 434 kts | 120° |
| 2026-04-30 12:29 | 49.03903 | 8.19897 | 39321 ft | 434 kts | 121° |
| 2026-04-30 12:30 | 49.00500 | 8.27481 | 39317 ft | 434 kts | 121° |
| 2026-04-30 12:30 | 48.96672 | 8.34644 | 39318 ft | 438 kts | 130° |
| 2026-04-30 12:31 | 48.92467 | 8.41358 | 39316 ft | 439 kts | 130° |
| 2026-04-30 12:31 | 48.88266 | 8.48075 | 39318 ft | 439 kts | 130° |
| 2026-04-30 12:32 | 48.84066 | 8.54751 | 39307 ft | 439 kts | 130° |
| 2026-04-30 12:32 | 48.79815 | 8.61484 | 39313 ft | 439 kts | 130° |
| 2026-04-30 12:33 | 48.75583 | 8.68174 | 39306 ft | 439 kts | 130° |
| 2026-04-30 12:33 | 48.72075 | 8.73722 | 39326 ft | 439 kts | 130° |
| 2026-04-30 12:34 | 48.68437 | 8.79503 | 39325 ft | 440 kts | 129° |
| 2026-04-30 12:34 | 48.63507 | 8.87278 | 39315 ft | 441 kts | 130° |
| 2026-04-30 12:35 | 48.59927 | 8.92843 | 39313 ft | 442 kts | 130° |
| 2026-04-30 12:35 | 48.55646 | 8.99506 | 39311 ft | 442 kts | 130° |
| 2026-04-30 12:36 | 48.51374 | 9.06173 | 39309 ft | 442 kts | 130° |
| 2026-04-30 12:36 | 48.47093 | 9.12837 | 39318 ft | 442 kts | 130° |
| 2026-04-30 12:37 | 48.42800 | 9.19498 | 39304 ft | 443 kts | 130° |
| 2026-04-30 12:37 | 48.38497 | 9.26157 | 39299 ft | 444 kts | 130° |
| 2026-04-30 12:38 | 48.34210 | 9.32777 | 39301 ft | 445 kts | 130° |
| 2026-04-30 12:38 | 48.29886 | 9.39435 | 39303 ft | 445 kts | 130° |
| 2026-04-30 12:39 | 48.25532 | 9.46058 | 39323 ft | 447 kts | 134° |
| 2026-04-30 12:39 | 48.20695 | 9.52009 | 39308 ft | 451 kts | 137° |
| 2026-04-30 12:40 | 48.15815 | 9.57924 | 39305 ft | 452 kts | 137° |
| 2026-04-30 12:40 | 48.10928 | 9.63843 | 39306 ft | 452 kts | 137° |
| 2026-04-30 12:41 | 48.06033 | 9.69750 | 39303 ft | 452 kts | 137° |
| 2026-04-30 12:41 | 48.01128 | 9.75650 | 39303 ft | 453 kts | 137° |
| 2026-04-30 12:42 | 47.96213 | 9.81543 | 39313 ft | 454 kts | 137° |
| 2026-04-30 12:42 | 47.91320 | 9.87396 | 39305 ft | 455 kts | 137° |
| 2026-04-30 12:43 | 47.86379 | 9.93301 | 39301 ft | 456 kts | 137° |
| 2026-04-30 12:43 | 47.81432 | 9.99205 | 39302 ft | 456 kts | 137° |
| 2026-04-30 12:44 | 47.76475 | 10.05096 | 39283 ft | 456 kts | 138° |
| 2026-04-30 12:44 | 47.71511 | 10.10976 | 39281 ft | 457 kts | 137° |
| 2026-04-30 12:45 | 47.66538 | 10.16865 | 39285 ft | 458 kts | 138° |
| 2026-04-30 12:45 | 47.61545 | 10.22750 | 39282 ft | 459 kts | 138° |
| 2026-04-30 12:46 | 47.56537 | 10.28628 | 39264 ft | 459 kts | 138° |
| 2026-04-30 12:46 | 47.51522 | 10.34516 | 39263 ft | 460 kts | 139° |
| 2026-04-30 12:47 | 47.46506 | 10.40400 | 39252 ft | 461 kts | 139° |
| 2026-04-30 12:47 | 47.41491 | 10.46292 | 39273 ft | 459 kts | 135° |
| 2026-04-30 12:48 | 47.37384 | 10.53378 | 39252 ft | 453 kts | 122° |
| 2026-04-30 12:48 | 47.33723 | 10.60959 | 39244 ft | 455 kts | 122° |
| 2026-04-30 12:49 | 47.30028 | 10.68539 | 39240 ft | 455 kts | 122° |
| 2026-04-30 12:49 | 47.26322 | 10.76101 | 39241 ft | 456 kts | 123° |
| 2026-04-30 12:50 | 47.22610 | 10.83674 | 39261 ft | 457 kts | 122° |
| 2026-04-30 12:50 | 47.18918 | 10.91207 | 39247 ft | 458 kts | 122° |
| 2026-04-30 12:51 | 47.15180 | 10.98796 | 39253 ft | 459 kts | 122° |
| 2026-04-30 12:51 | 47.11421 | 11.06380 | 39258 ft | 459 kts | 123° |
| 2026-04-30 12:52 | 47.07654 | 11.13959 | 39256 ft | 460 kts | 123° |
| 2026-04-30 12:52 | 47.03890 | 11.21551 | 39256 ft | 461 kts | 123° |
| 2026-04-30 12:53 | 47.00118 | 11.29155 | 39247 ft | 462 kts | 123° |
| 2026-04-30 12:53 | 46.96331 | 11.36754 | 39231 ft | 461 kts | 123° |
| 2026-04-30 12:54 | 46.92534 | 11.44324 | 39237 ft | 462 kts | 123° |
| 2026-04-30 12:54 | 46.88722 | 11.51902 | 39251 ft | 463 kts | 123° |
| 2026-04-30 12:55 | 46.84905 | 11.59494 | 39239 ft | 465 kts | 123° |
| 2026-04-30 12:55 | 46.81071 | 11.67087 | 39239 ft | 465 kts | 123° |
| 2026-04-30 12:56 | 46.77234 | 11.74677 | 39230 ft | 465 kts | 123° |
| 2026-04-30 12:56 | 46.73389 | 11.82271 | 39221 ft | 466 kts | 124° |
| 2026-04-30 12:57 | 46.69544 | 11.89825 | 39229 ft | 467 kts | 123° |
| 2026-04-30 12:57 | 46.65666 | 11.97414 | 39232 ft | 467 kts | 124° |
| 2026-04-30 12:58 | 46.61781 | 12.04992 | 39234 ft | 467 kts | 124° |
| 2026-04-30 12:58 | 46.57892 | 12.12564 | 39234 ft | 468 kts | 124° |
| 2026-04-30 12:59 | 46.53993 | 12.20135 | 39289 ft | 468 kts | 124° |
| 2026-04-30 12:59 | 46.50089 | 12.27709 | 39266 ft | 469 kts | 124° |
| 2026-04-30 13:00 | 46.46178 | 12.35269 | 39262 ft | 469 kts | 124° |
| 2026-04-30 13:00 | 46.42245 | 12.42845 | 39260 ft | 470 kts | 124° |
| 2026-04-30 13:01 | 46.38304 | 12.50423 | 39275 ft | 471 kts | 124° |
| 2026-04-30 13:01 | 46.34364 | 12.57985 | 39305 ft | 471 kts | 124° |
| 2026-04-30 13:02 | 46.30415 | 12.65541 | 39309 ft | 471 kts | 124° |
| 2026-04-30 13:02 | 46.26487 | 12.73034 | 39308 ft | 470 kts | 124° |
| 2026-04-30 13:03 | 46.22521 | 12.80569 | 39309 ft | 471 kts | 125° |
| 2026-04-30 13:03 | 46.18546 | 12.88101 | 39323 ft | 472 kts | 125° |
| 2026-04-30 13:04 | 46.14562 | 12.95633 | 39310 ft | 473 kts | 125° |
| 2026-04-30 13:04 | 46.10583 | 13.03158 | 39306 ft | 473 kts | 125° |
| 2026-04-30 13:05 | 46.06569 | 13.10712 | 39307 ft | 474 kts | 125° |
| 2026-04-30 13:06 | 46.00559 | 13.21985 | 39313 ft | 474 kts | 125° |
| 2026-04-30 13:06 | 45.96536 | 13.29499 | 39300 ft | 474 kts | 125° |
| 2026-04-30 13:07 | 45.92505 | 13.37004 | 39289 ft | 474 kts | 125° |
| 2026-04-30 13:07 | 45.88476 | 13.44499 | 39284 ft | 474 kts | 126° |
| 2026-04-30 13:08 | 45.84439 | 13.51988 | 39302 ft | 475 kts | 126° |
| 2026-04-30 13:08 | 45.80393 | 13.59473 | 39296 ft | 475 kts | 126° |
| 2026-04-30 13:09 | 45.76348 | 13.66942 | 39298 ft | 475 kts | 126° |
| 2026-04-30 13:09 | 45.72289 | 13.74408 | 39289 ft | 475 kts | 126° |
| 2026-04-30 13:10 | 45.68247 | 13.81812 | 39285 ft | 477 kts | 126° |
| 2026-04-30 13:10 | 45.64153 | 13.89287 | 39292 ft | 478 kts | 126° |
| 2026-04-30 13:11 | 45.60058 | 13.96768 | 39287 ft | 478 kts | 126° |
| 2026-04-30 13:11 | 45.55951 | 14.04253 | 39293 ft | 479 kts | 126° |
| 2026-04-30 13:12 | 45.51831 | 14.11736 | 39294 ft | 480 kts | 126° |
| 2026-04-30 13:12 | 45.47648 | 14.19148 | 39254 ft | 482 kts | 131° |
| 2026-04-30 13:13 | 45.42541 | 14.25309 | 38776 ft | 483 kts | 142° |
| 2026-04-30 13:13 | 45.39873 | 14.28227 | 38507 ft | 483 kts | 142° |
| 2026-04-30 13:13 | 45.34544 | 14.34040 | 37922 ft | 483 kts | 142° |
| 2026-04-30 13:14 | 45.31874 | 14.36951 | 37149 ft | 485 kts | 142° |
| 2026-04-30 13:14 | 45.29192 | 14.39870 | 36362 ft | 487 kts | 142° |
| 2026-04-30 13:14 | 45.23771 | 14.45762 | 34656 ft | 495 kts | 142° |
| 2026-04-30 13:15 | 45.21049 | 14.48717 | 34004 ft | 487 kts | 142° |
| 2026-04-30 13:15 | 45.15771 | 14.54419 | 32539 ft | 468 kts | 142° |
| 2026-04-30 13:15 | 45.13194 | 14.57196 | 31966 ft | 463 kts | 142° |
| 2026-04-30 13:16 | 45.10655 | 14.59935 | 31452 ft | 456 kts | 142° |
| 2026-04-30 13:16 | 45.08147 | 14.62636 | 30679 ft | 450 kts | 142° |
| 2026-04-30 13:16 | 45.05660 | 14.65309 | 30122 ft | 446 kts | 142° |
| 2026-04-30 13:17 | 45.00795 | 14.70521 | 29046 ft | 439 kts | 142° |
| 2026-04-30 13:17 | 44.98413 | 14.73073 | 28750 ft | 425 kts | 142° |
| 2026-04-30 13:17 | 44.94520 | 14.77244 | 27895 ft | 410 kts | 142° |
| 2026-04-30 13:18 | 44.91538 | 14.80429 | 27151 ft | 402 kts | 142° |
| 2026-04-30 13:18 | 44.87121 | 14.85132 | 25819 ft | 396 kts | 142° |
| 2026-04-30 13:18 | 44.84939 | 14.87459 | 25404 ft | 389 kts | 142° |
| 2026-04-30 13:19 | 44.82800 | 14.89739 | 24827 ft | 384 kts | 142° |
| 2026-04-30 13:19 | 44.80683 | 14.91995 | 24240 ft | 380 kts | 141° |
| 2026-04-30 13:19 | 44.78584 | 14.94233 | 23637 ft | 375 kts | 142° |
| 2026-04-30 13:19 | 44.76519 | 14.96429 | 23021 ft | 369 kts | 142° |
| 2026-04-30 13:20 | 44.74487 | 14.98587 | 22376 ft | 365 kts | 142° |
| 2026-04-30 13:20 | 44.72461 | 15.00730 | 21741 ft | 361 kts | 142° |
| 2026-04-30 13:20 | 44.70468 | 15.02832 | 21103 ft | 357 kts | 142° |
| 2026-04-30 13:20 | 44.68489 | 15.04918 | 20457 ft | 354 kts | 142° |
| 2026-04-30 13:21 | 44.66469 | 15.06864 | 19845 ft | 351 kts | 149° |
| 2026-04-30 13:21 | 44.64325 | 15.08462 | 19242 ft | 348 kts | 152° |
| 2026-04-30 13:21 | 44.62183 | 15.10024 | 18662 ft | 345 kts | 152° |
| 2026-04-30 13:22 | 44.58004 | 15.13076 | 17380 ft | 338 kts | 152° |
| 2026-04-30 13:22 | 44.55900 | 15.14610 | 16755 ft | 335 kts | 152° |
| 2026-04-30 13:22 | 44.51826 | 15.17584 | 15595 ft | 329 kts | 151° |
| 2026-04-30 13:23 | 44.49808 | 15.19058 | 15071 ft | 326 kts | 151° |
| 2026-04-30 13:23 | 44.45803 | 15.21976 | 13903 ft | 322 kts | 150° |
| 2026-04-30 13:24 | 44.41846 | 15.24847 | 12769 ft | 320 kts | 150° |
| 2026-04-30 13:24 | 44.37943 | 15.27667 | 11772 ft | 313 kts | 150° |
| 2026-04-30 13:25 | 44.34106 | 15.30450 | 11180 ft | 306 kts | 150° |
| 2026-04-30 13:25 | 44.30274 | 15.32949 | 10683 ft | 304 kts | 163° |
| 2026-04-30 13:26 | 44.24123 | 15.32000 | 9939 ft | 302 kts | 209° |
| 2026-04-30 13:26 | 44.20844 | 15.28365 | 9669 ft | 301 kts | 223° |
| 2026-04-30 13:27 | 44.17713 | 15.24505 | 9404 ft | 300 kts | 222° |
| 2026-04-30 13:28 | 44.13567 | 15.19412 | 8654 ft | 297 kts | 222° |
| 2026-04-30 13:28 | 44.10494 | 15.15639 | 8310 ft | 294 kts | 221° |
| 2026-04-30 13:28 | 44.08961 | 15.13760 | 8182 ft | 294 kts | 221° |
| 2026-04-30 13:29 | 44.05908 | 15.10006 | 7648 ft | 292 kts | 221° |
| 2026-04-30 13:29 | 44.02893 | 15.06311 | 6892 ft | 287 kts | 221° |
| 2026-04-30 13:30 | 43.98001 | 15.02105 | 5693 ft | 276 kts | 178° |
| 2026-04-30 13:31 | 43.94671 | 15.04025 | 4852 ft | 258 kts | 129° |
| 2026-04-30 13:31 | 43.91310 | 15.09708 | 3649 ft | 242 kts | 107° |
| 2026-04-30 13:32 | 43.91608 | 15.13819 | 3460 ft | 211 kts | 55° |
| 2026-04-30 13:32 | 43.93572 | 15.16422 | 3306 ft | 183 kts | 41° |
| 2026-04-30 13:33 | 43.95429 | 15.18709 | 3115 ft | 175 kts | 42° |
| 2026-04-30 13:33 | 43.97256 | 15.20954 | 2956 ft | 176 kts | 41° |
| 2026-04-30 13:34 | 43.98177 | 15.22085 | 2867 ft | 177 kts | 41° |
| 2026-04-30 13:34 | 44.00804 | 15.25309 | 2182 ft | 151 kts | 40° |
| 2026-04-30 13:35 | 44.01582 | 15.26267 | 1983 ft | 149 kts | 41° |
| 2026-04-30 13:35 | 44.03032 | 15.28052 | 1601 ft | 131 kts | 40° |
| 2026-04-30 13:36 | 44.04346 | 15.29670 | 1276 ft | 125 kts | 41° |
| 2026-04-30 13:36 | 44.04991 | 15.30467 | 1105 ft | 124 kts | 40° |
| 2026-04-30 13:36 | 44.06274 | 15.32063 | 794 ft | 123 kts | 45° |
| 2026-04-30 13:37 | 44.06928 | 15.32853 | 629 ft | 122 kts | 42° |
| 2026-04-30 13:37 | 44.08208 | 15.34441 | 296 ft | 120 kts | 44° |
| 2026-04-30 13:38 | 44.08749 | 15.35106 | 286 ft | 4 kts | 41° |
| 2026-04-30 13:39 | 44.09329 | 15.35674 | 279 ft | 12 kts | 309° |
| 2026-04-30 13:40 | 44.09379 | 15.35591 | 279 ft | 12 kts | 314° |
| 2026-04-30 13:40 | 44.09450 | 15.35543 | 281 ft | 12 kts | 355° |
| 2026-04-30 13:40 | 44.09535 | 15.35541 | 279 ft | 12 kts | 358° |
| 2026-04-30 13:40 | 44.09615 | 15.35540 | 279 ft | 11 kts | 358° |
| 2026-04-30 13:41 | 44.09652 | 15.35491 | 279 ft | 4 kts | 268° |
| 2026-04-30 13:41 | 44.09651 | 15.35456 | 279 ft | 3 kts | 269° |
| 2026-04-30 13:41 | 44.09651 | 15.35439 | 279 ft | 0 kts | 268° |
| 2026-04-30 13:41 | 44.09651 | 15.35435 | 279 ft | 0 kts | 269° |